Time;durP1;ratioP1;P1;durP2;ratioP2;P2;SDS_P1;SDS_P2;PMS_P1;PMS_P2;Temp;Humidity;BMP_temperature;BMP_pressure;BME280_temperature;BME280_humidity;BME280_pressure;Samples;Min_cycle;Max_cycle;Signal;HPM_P1;HPM_P2
2022/05/25 00:01:46;;;;;;;;;;;13.90;68.90;;;;;;5091196;28;19930;-73
2022/05/25 00:04:11;;;;;;;;;;;13.90;69.00;;;;;;5091049;28;19908;-75
2022/05/25 00:06:37;;;;;;;;;;;13.80;69.00;;;;;;5109448;28;19943;-75
2022/05/25 00:09:04;;;;;;;;;;;13.80;69.20;;;;;;5091469;28;20031;-75
2022/05/25 00:11:29;;;;;;;;;;;13.80;69.20;;;;;;5109537;28;20362;-75
2022/05/25 00:13:55;;;;;;;;;;;13.80;69.40;;;;;;5109563;28;19912;-74
2022/05/25 00:16:20;;;;;;;;;;;13.70;69.20;;;;;;5074454;28;19918;-76
2022/05/25 00:21:31;;;;;;;;;;;13.70;70.00;;;;;;5109811;28;19918;-73
2022/05/25 00:23:56;;;;;;;;;;;13.60;70.10;;;;;;5109258;28;19911;-74
2022/05/25 00:26:22;;;;;;;;;;;13.60;70.00;;;;;;5109194;28;19959;-74
2022/05/25 00:28:48;;;;;;;;;;;13.60;70.00;;;;;;5109219;28;20289;-73
2022/05/25 00:31:14;;;;;;;;;;;13.60;70.20;;;;;;5109234;28;20321;-74
2022/05/25 00:33:40;;;;;;;;;;;13.50;70.30;;;;;;5090787;28;20334;-73
2022/05/25 00:36:06;;;;;;;;;;;13.50;70.40;;;;;;5108991;28;19912;-75
2022/05/25 00:38:31;;;;;;;;;;;13.50;70.60;;;;;;5090798;28;19912;-73
2022/05/25 00:40:57;;;;;;;;;;;13.50;70.40;;;;;;5109165;28;19915;-73
2022/05/25 00:43:23;;;;;;;;;;;13.50;70.50;;;;;;5108980;28;19960;-74
2022/05/25 00:45:51;;;;;;;;;;;13.50;70.60;;;;;;5108852;28;20003;-75
2022/05/25 00:48:45;;;;;;;;;;;13.50;70.80;;;;;;5108681;28;20029;-74
2022/05/25 00:51:13;;;;;;;;;;;13.50;70.80;;;;;;5081517;28;19912;-75
2022/05/25 00:53:47;;;;;;;;;;;13.50;70.70;;;;;;5108706;28;20365;-74
2022/05/25 00:56:15;;;;;;;;;;;13.60;71.00;;;;;;5090347;28;19914;-74
2022/05/25 00:58:42;;;;;;;;;;;13.50;71.10;;;;;;5090388;28;20254;-74
2022/05/25 01:01:08;;;;;;;;;;;13.50;71.20;;;;;;5108674;28;19908;-75
2022/05/25 01:03:33;;;;;;;;;;;13.50;71.30;;;;;;5108660;28;20293;-73
2022/05/25 01:06:02;;;;;;;;;;;13.50;71.60;;;;;;5089992;28;19915;-73
2022/05/25 01:08:40;;;;;;;;;;;13.40;71.50;;;;;;5108288;28;19951;-74
2022/05/25 01:11:18;;;;;;;;;;;13.40;71.70;;;;;;5108185;28;20006;-76
2022/05/25 01:13:56;;;;;;;;;;;13.40;72.00;;;;;;5089819;28;20042;-74
2022/05/25 01:16:28;;;;;;;;;;;13.40;71.90;;;;;;5108157;28;19908;-73
2022/05/25 01:18:56;;;;;;;;;;;13.30;72.40;;;;;;5108289;28;19963;-76
2022/05/25 01:21:31;;;;;;;;;;;13.30;72.40;;;;;;5108435;28;19908;-76
2022/05/25 01:24:21;;;;;;;;;;;13.20;72.60;;;;;;5108370;28;19934;-75
2022/05/25 01:26:52;;;;;;;;;;;13.20;72.60;;;;;;5108520;28;19919;-74
2022/05/25 01:29:37;;;;;;;;;;;13.20;73.30;;;;;;5090057;28;19908;-74
2022/05/25 01:32:07;;;;;;;;;;;13.10;73.50;;;;;;5108255;28;19912;-75
2022/05/25 01:34:35;;;;;;;;;;;13.10;74.00;;;;;;5108373;28;20276;-75
2022/05/25 01:37:08;;;;;;;;;;;13.10;74.30;;;;;;5108270;28;19999;-73
2022/05/25 01:39:36;;;;;;;;;;;13.10;74.60;;;;;;5108197;28;19919;-74
2022/05/25 01:42:17;;;;;;;;;;;13.00;74.90;;;;;;5108321;28;19908;-74
2022/05/25 01:44:45;;;;;;;;;;;13.00;75.10;;;;;;5108300;28;19919;-75
2022/05/25 01:47:11;;;;;;;;;;;13.00;75.30;;;;;;5090163;28;19911;-76
2022/05/25 01:50:09;;;;;;;;;;;12.90;75.70;;;;;;5086590;28;20281;-74
2022/05/25 01:52:39;;;;;;;;;;;12.90;76.10;;;;;;5088629;28;19913;-74
2022/05/25 01:55:07;;;;;;;;;;;12.90;76.50;;;;;;5090557;28;19930;-73
2022/05/25 01:57:36;;;;;;;;;;;12.90;76.70;;;;;;5091856;28;19915;-75
2022/05/25 02:00:02;;;;;;;;;;;12.90;77.20;;;;;;5090457;28;20312;-73
2022/05/25 02:05:14;;;;;;;;;;;12.90;77.60;;;;;;5091802;28;20383;-74
2022/05/25 02:07:48;;;;;;;;;;;12.90;77.80;;;;;;5090234;28;20285;-74
2022/05/25 02:10:18;;;;;;;;;;;12.90;78.10;;;;;;5091643;28;19915;-73
2022/05/25 02:13:00;;;;;;;;;;;12.90;78.20;;;;;;5091567;28;19915;-75
2022/05/25 02:15:42;;;;;;;;;;;12.90;78.60;;;;;;5091518;28;19908;-74
2022/05/25 02:18:16;;;;;;;;;;;12.90;79.20;;;;;;5090025;28;19919;-75
2022/05/25 02:21:03;;;;;;;;;;;12.80;79.60;;;;;;5091307;28;19935;-75
2022/05/25 02:23:47;;;;;;;;;;;12.80;80.00;;;;;;5091377;28;19908;-74
2022/05/25 02:26:22;;;;;;;;;;;12.80;80.30;;;;;;5091221;28;19908;-75
2022/05/25 02:28:53;;;;;;;;;;;12.80;80.70;;;;;;5091284;28;19912;-75
2022/05/25 02:31:20;;;;;;;;;;;12.80;81.00;;;;;;5091197;28;19995;-74
2022/05/25 02:33:48;;;;;;;;;;;12.80;81.50;;;;;;5091151;28;19912;-74
2022/05/25 02:36:14;;;;;;;;;;;12.70;81.90;;;;;;5091077;28;20012;-74
2022/05/25 02:38:41;;;;;;;;;;;12.70;82.30;;;;;;5091495;28;19991;-75
2022/05/25 02:41:10;;;;;;;;;;;12.70;82.50;;;;;;5090982;28;19912;-74
2022/05/25 02:43:36;;;;;;;;;;;12.70;82.80;;;;;;5089512;28;19912;-74
2022/05/25 02:46:03;;;;;;;;;;;12.60;83.10;;;;;;5090827;28;19908;-74
2022/05/25 02:48:30;;;;;;;;;;;12.60;83.40;;;;;;5099169;28;19920;-74
2022/05/25 02:50:56;;;;;;;;;;;12.60;83.50;;;;;;5092538;28;19919;-73
2022/05/25 02:53:22;;;;;;;;;;;12.60;83.80;;;;;;5111084;28;19908;-73
2022/05/25 02:55:49;;;;;;;;;;;12.60;83.90;;;;;;5092889;28;20312;-74
2022/05/25 02:58:15;;;;;;;;;;;12.50;84.00;;;;;;5076173;28;20493;-74
2022/05/25 03:00:40;;;;;;;;;;;12.50;84.20;;;;;;5110940;28;19916;-74
2022/05/25 03:03:06;;;;;;;;;;;12.60;84.50;;;;;;5109808;28;20259;-75
2022/05/25 03:05:32;;;;;;;;;;;12.60;84.50;;;;;;5075542;28;21324;-75
2022/05/25 03:07:57;;;;;;;;;;;12.60;84.90;;;;;;5110848;28;19912;-73
2022/05/25 03:10:23;;;;;;;;;;;12.60;85.10;;;;;;5110781;28;20002;-74
2022/05/25 03:12:48;;;;;;;;;;;12.60;85.40;;;;;;5110960;28;20293;-74
2022/05/25 03:15:14;;;;;;;;;;;12.60;85.40;;;;;;5092358;28;19911;-75
2022/05/25 03:17:40;;;;;;;;;;;12.60;85.70;;;;;;5092601;28;19908;-73
2022/05/25 03:20:06;;;;;;;;;;;12.60;85.80;;;;;;5092314;28;19926;-74
2022/05/25 03:22:34;;;;;;;;;;;12.60;85.90;;;;;;5110571;28;19946;-74
2022/05/25 03:25:00;;;;;;;;;;;12.70;86.10;;;;;;5092309;28;19912;-75
2022/05/25 03:27:25;;;;;;;;;;;12.60;86.10;;;;;;5110559;28;19916;-74
2022/05/25 03:29:51;;;;;;;;;;;12.70;86.50;;;;;;5092550;28;19912;-73
2022/05/25 03:32:16;;;;;;;;;;;12.70;86.60;;;;;;5110408;28;20376;-75
2022/05/25 03:34:42;;;;;;;;;;;12.70;86.80;;;;;;5092332;28;19911;-72
2022/05/25 03:37:07;;;;;;;;;;;12.70;87.00;;;;;;5110297;28;19912;-72
2022/05/25 03:39:33;;;;;;;;;;;12.70;87.10;;;;;;5091991;28;19923;-74
2022/05/25 03:42:00;;;;;;;;;;;12.70;87.20;;;;;;5092041;28;19908;-74
2022/05/25 03:44:26;;;;;;;;;;;12.80;87.30;;;;;;5110129;28;19934;-75
2022/05/25 03:46:52;;;;;;;;;;;12.80;87.50;;;;;;5110047;28;20360;-73
2022/05/25 03:49:18;;;;;;;;;;;12.80;87.50;;;;;;5091736;28;20337;-74
2022/05/25 03:51:44;;;;;;;;;;;12.90;87.70;;;;;;5091590;28;19912;-72
2022/05/25 03:54:10;;;;;;;;;;;12.90;87.90;;;;;;5109958;28;19949;-74
2022/05/25 03:56:35;;;;;;;;;;;12.90;88.10;;;;;;5109834;28;19995;-74
2022/05/25 03:59:01;;;;;;;;;;;12.90;88.10;;;;;;5109863;28;20120;-74
2022/05/25 04:01:26;;;;;;;;;;;12.90;88.30;;;;;;5109767;28;20289;-75
2022/05/25 04:03:52;;;;;;;;;;;12.90;88.30;;;;;;5109617;28;20357;-75
2022/05/25 04:06:17;;;;;;;;;;;12.90;88.40;;;;;;5109608;28;19911;-75
2022/05/25 04:08:43;;;;;;;;;;;12.90;88.40;;;;;;5091808;28;20012;-73
2022/05/25 04:11:09;;;;;;;;;;;12.90;88.50;;;;;;5109653;28;19908;-74
2022/05/25 04:13:34;;;;;;;;;;;12.90;88.70;;;;;;5091285;28;20375;-74
2022/05/25 04:16:00;;;;;;;;;;;12.90;88.70;;;;;;5108973;28;19918;-74
2022/05/25 04:18:25;;;;;;;;;;;12.90;88.80;;;;;;5091173;28;19974;-74
2022/05/25 04:20:51;;;;;;;;;;;12.90;88.90;;;;;;5091082;28;20010;-73
2022/05/25 04:23:16;;;;;;;;;;;12.90;89.10;;;;;;5109391;28;19911;-73
2022/05/25 04:25:42;;;;;;;;;;;12.90;89.30;;;;;;5074082;28;20373;-73
2022/05/25 04:28:08;;;;;;;;;;;12.90;89.50;;;;;;5109352;28;19954;-73
2022/05/25 04:30:33;;;;;;;;;;;13.00;89.80;;;;;;5091033;28;20426;-75
2022/05/25 04:32:59;;;;;;;;;;;12.90;89.90;;;;;;5073892;28;19919;-74
2022/05/25 04:35:26;;;;;;;;;;;13.00;90.00;;;;;;5090685;28;19965;-73
2022/05/25 04:37:55;;;;;;;;;;;13.00;90.00;;;;;;5091155;28;19919;-73
2022/05/25 04:40:33;;;;;;;;;;;13.00;90.00;;;;;;5109070;28;19918;-72
2022/05/25 04:43:00;;;;;;;;;;;13.00;90.20;;;;;;5109275;28;19919;-75
2022/05/25 04:45:26;;;;;;;;;;;12.90;90.20;;;;;;5108907;28;19918;-75
2022/05/25 04:47:52;;;;;;;;;;;12.90;90.30;;;;;;5090616;28;19919;-73
2022/05/25 04:50:19;;;;;;;;;;;12.90;90.50;;;;;;5090770;28;19919;-74
2022/05/25 04:52:44;;;;;;;;;;;12.90;90.60;;;;;;5108822;28;19950;-73
2022/05/25 04:57:19;;;;;;;;;;;12.90;90.70;;;;;;5090476;28;20041;-72
2022/05/25 04:57:56;;;;;;;;;;;12.90;90.80;;;;;;5108674;28;20006;-73
2022/05/25 05:00:22;;;;;;;;;;;12.90;90.90;;;;;;5108641;28;20072;-73
2022/05/25 05:02:48;;;;;;;;;;;13.00;91.00;;;;;;5108654;28;19907;-73
2022/05/25 05:05:14;;;;;;;;;;;13.00;91.10;;;;;;5108541;28;19916;-72
2022/05/25 05:07:40;;;;;;;;;;;12.90;91.10;;;;;;5090828;28;19938;-72
2022/05/25 05:10:06;;;;;;;;;;;12.90;91.20;;;;;;5108639;28;19911;-74
2022/05/25 05:12:31;;;;;;;;;;;12.90;91.40;;;;;;5108483;28;19908;-75
2022/05/25 05:14:57;;;;;;;;;;;12.90;91.50;;;;;;5108558;28;19962;-73
2022/05/25 05:17:23;;;;;;;;;;;12.90;91.50;;;;;;5089981;28;19919;-74
2022/05/25 05:19:49;;;;;;;;;;;12.90;91.60;;;;;;5108386;28;19957;-73
2022/05/25 05:22:14;;;;;;;;;;;12.90;91.60;;;;;;5090157;28;19927;-74
2022/05/25 05:24:40;;;;;;;;;;;12.90;91.70;;;;;;5108052;28;19908;-73
2022/05/25 05:27:07;;;;;;;;;;;13.00;91.80;;;;;;5107466;28;20023;-73
2022/05/25 05:29:33;;;;;;;;;;;13.00;91.80;;;;;;5108243;28;19908;-73
2022/05/25 05:31:58;;;;;;;;;;;13.10;91.90;;;;;;5108694;28;20412;-72
2022/05/25 05:34:28;;;;;;;;;;;13.20;92.00;;;;;;5108212;28;20358;-73
2022/05/25 05:37:05;;;;;;;;;;;13.20;91.90;;;;;;5108133;28;19911;-73
2022/05/25 05:39:33;;;;;;;;;;;13.30;91.90;;;;;;5089737;28;19923;-73
2022/05/25 05:42:03;;;;;;;;;;;13.30;91.90;;;;;;5108148;28;19918;-73
2022/05/25 05:44:32;;;;;;;;;;;13.40;92.00;;;;;;5108059;28;20369;-75
2022/05/25 05:46:58;;;;;;;;;;;13.40;92.00;;;;;;5108030;28;19915;-73
2022/05/25 05:49:24;;;;;;;;;;;13.40;92.10;;;;;;5107847;28;19945;-75
2022/05/25 05:51:50;;;;;;;;;;;13.40;92.10;;;;;;5107904;28;19912;-74
2022/05/25 05:54:16;;;;;;;;;;;13.40;92.20;;;;;;5107267;28;19912;-74
2022/05/25 05:56:43;;;;;;;;;;;13.50;92.30;;;;;;5089548;28;19926;-74
2022/05/25 05:59:08;;;;;;;;;;;13.50;92.30;;;;;;5107745;28;19919;-75
2022/05/25 06:01:34;;;;;;;;;;;13.70;92.30;;;;;;5107737;28;19911;-74
2022/05/25 06:04:00;;;;;;;;;;;13.80;92.30;;;;;;5107835;28;19912;-73
2022/05/25 06:06:25;;;;;;;;;;;13.90;92.20;;;;;;5107816;28;19911;-74
2022/05/25 06:08:51;;;;;;;;;;;14.00;92.10;;;;;;5107772;28;20346;-74
2022/05/25 06:11:18;;;;;;;;;;;14.10;92.10;;;;;;5107826;28;20282;-74
2022/05/25 06:13:44;;;;;;;;;;;14.20;92.10;;;;;;5089925;28;19922;-73
2022/05/25 06:21:38;;;;;;;;;;;14.40;91.70;;;;;;5109068;28;20206;-74
2022/05/25 06:24:04;;;;;;;;;;;14.50;91.60;;;;;;5107554;28;19943;-73
2022/05/25 06:26:31;;;;;;;;;;;14.50;91.60;;;;;;5107526;28;19994;-74
2022/05/25 06:28:57;;;;;;;;;;;14.60;91.60;;;;;;5072648;28;19919;-74
2022/05/25 06:31:23;;;;;;;;;;;14.60;91.40;;;;;;5107397;28;19911;-73
2022/05/25 06:33:49;;;;;;;;;;;14.60;91.40;;;;;;5107600;28;19908;-73
2022/05/25 06:36:20;;;;;;;;;;;14.70;91.40;;;;;;5088965;28;19919;-73
2022/05/25 06:38:45;;;;;;;;;;;14.70;91.30;;;;;;5109356;28;19915;-74
2022/05/25 06:41:11;;;;;;;;;;;14.80;91.40;;;;;;5111305;28;19918;-74
2022/05/25 06:43:37;;;;;;;;;;;14.80;91.30;;;;;;5111296;28;19931;-73
2022/05/25 06:46:03;;;;;;;;;;;15.00;91.30;;;;;;5111158;28;19911;-73
2022/05/25 06:48:28;;;;;;;;;;;15.10;91.10;;;;;;5092278;28;20439;-73
2022/05/25 06:50:54;;;;;;;;;;;15.20;90.90;;;;;;5110860;28;19912;-74
2022/05/25 06:53:19;;;;;;;;;;;15.10;90.90;;;;;;5110557;28;20393;-73
2022/05/25 06:55:45;;;;;;;;;;;15.10;91.00;;;;;;5092404;28;20440;-74
2022/05/25 06:58:11;;;;;;;;;;;15.10;91.00;;;;;;5092321;28;19923;-75
2022/05/25 07:00:36;;;;;;;;;;;15.20;91.10;;;;;;5110235;28;19912;-73
2022/05/25 07:03:03;;;;;;;;;;;15.20;91.30;;;;;;5092017;28;19908;-73
2022/05/25 07:05:29;;;;;;;;;;;15.20;91.00;;;;;;5110376;28;19987;-73
2022/05/25 07:07:54;;;;;;;;;;;15.20;91.10;;;;;;5110384;28;19996;-74
2022/05/25 07:10:20;;;;;;;;;;;15.30;91.10;;;;;;5091855;28;20390;-73
2022/05/25 07:12:46;;;;;;;;;;;15.40;91.20;;;;;;5110366;28;20008;-75
2022/05/25 07:15:12;;;;;;;;;;;15.60;91.20;;;;;;5092236;28;19998;-73
2022/05/25 07:17:37;;;;;;;;;;;16.00;90.90;;;;;;5110295;28;19996;-74
2022/05/25 07:20:04;;;;;;;;;;;16.30;90.60;;;;;;5110349;28;19941;-75
2022/05/25 07:22:29;;;;;;;;;;;16.60;90.40;;;;;;5110218;28;19916;-74
2022/05/25 07:24:56;;;;;;;;;;;16.80;89.90;;;;;;5110094;28;19961;-73
2022/05/25 07:27:21;;;;;;;;;;;16.80;89.20;;;;;;5109968;28;19911;-74
2022/05/25 07:29:47;;;;;;;;;;;16.80;89.20;;;;;;5091797;28;20323;-74
2022/05/25 07:32:14;;;;;;;;;;;16.70;89.00;;;;;;5109653;28;19918;-74
2022/05/25 07:34:42;;;;;;;;;;;16.60;89.00;;;;;;5109963;28;19912;-73
2022/05/25 07:37:13;;;;;;;;;;;16.60;89.40;;;;;;5109747;28;19968;-76
2022/05/25 07:39:42;;;;;;;;;;;16.70;89.50;;;;;;5109684;28;19916;-74
2022/05/25 07:42:08;;;;;;;;;;;16.80;89.10;;;;;;5091373;28;19907;-73
2022/05/25 07:44:41;;;;;;;;;;;17.10;89.20;;;;;;5109732;28;20389;-73
2022/05/25 07:47:06;;;;;;;;;;;17.60;89.30;;;;;;5109747;28;19919;-74
2022/05/25 07:49:32;;;;;;;;;;;18.50;87.20;;;;;;5090335;28;19920;-76
2022/05/25 07:51:57;;;;;;;;;;;19.10;86.20;;;;;;5109612;28;19915;-73
2022/05/25 07:54:23;;;;;;;;;;;19.60;84.30;;;;;;5092355;28;20045;-75
2022/05/25 07:56:49;;;;;;;;;;;19.70;83.00;;;;;;5108578;28;20269;-75
2022/05/25 07:59:16;;;;;;;;;;;19.40;82.00;;;;;;5109111;28;19911;-75
2022/05/25 08:07:30;;;;;;;;;;;18.90;83.00;;;;;;5109402;28;20269;-74
2022/05/25 08:10:00;;;;;;;;;;;18.90;82.90;;;;;;5109026;28;19916;-74
2022/05/25 08:12:25;;;;;;;;;;;19.00;83.30;;;;;;5108433;28;19927;-73
2022/05/25 08:14:51;;;;;;;;;;;19.10;82.70;;;;;;5108869;28;19939;-74
2022/05/25 08:17:17;;;;;;;;;;;19.20;82.60;;;;;;5108730;28;19911;-73
2022/05/25 08:19:42;;;;;;;;;;;19.40;82.60;;;;;;5090593;28;20022;-74
2022/05/25 08:22:09;;;;;;;;;;;20.10;82.30;;;;;;5091370;28;20047;-75
2022/05/25 08:24:35;;;;;;;;;;;20.50;81.90;;;;;;5109587;28;19916;-74
2022/05/25 08:27:01;;;;;;;;;;;20.90;81.70;;;;;;5109522;28;19912;-75
2022/05/25 08:29:26;;;;;;;;;;;22.00;81.00;;;;;;5090841;28;19915;-74
2022/05/25 08:31:55;;;;;;;;;;;23.00;79.40;;;;;;5083661;28;19948;-74
2022/05/25 08:34:23;;;;;;;;;;;23.50;76.30;;;;;;5094435;28;19919;-74
2022/05/25 08:36:49;;;;;;;;;;;23.70;76.10;;;;;;5098834;28;19928;-74
2022/05/25 08:39:15;;;;;;;;;;;23.80;73.70;;;;;;5079181;28;19916;-74
2022/05/25 08:41:41;;;;;;;;;;;23.50;74.00;;;;;;5099950;28;19965;-73
2022/05/25 08:44:07;;;;;;;;;;;23.10;73.20;;;;;;5098884;28;20358;-74
2022/05/25 08:46:33;;;;;;;;;;;22.60;72.90;;;;;;5097969;28;19915;-75
2022/05/25 08:49:01;;;;;;;;;;;22.00;72.40;;;;;;5097673;28;19928;-72
2022/05/25 08:51:28;;;;;;;;;;;21.40;73.40;;;;;;5098666;28;19915;-74
2022/05/25 08:53:56;;;;;;;;;;;21.10;74.40;;;;;;5102025;28;19976;-73
2022/05/25 08:56:40;;;;;;;;;;;21.00;73.40;;;;;;5089837;28;20354;-73
2022/05/25 08:59:09;;;;;;;;;;;20.70;73.40;;;;;;5107988;28;20011;-73
2022/05/25 09:01:42;;;;;;;;;;;20.40;73.10;;;;;;5106956;28;20015;-75
2022/05/25 09:04:07;;;;;;;;;;;20.10;73.70;;;;;;5105963;28;20278;-75
2022/05/25 09:06:44;;;;;;;;;;;19.80;73.90;;;;;;5087201;28;19972;-75
2022/05/25 09:09:16;;;;;;;;;;;19.60;74.30;;;;;;5100769;28;20017;-76
2022/05/25 09:11:50;;;;;;;;;;;19.60;75.00;;;;;;5078108;28;19961;-74
2022/05/25 09:14:30;;;;;;;;;;;19.70;74.80;;;;;;5096781;28;19923;-75
2022/05/25 09:16:57;;;;;;;;;;;19.80;74.80;;;;;;5097124;28;20330;-76
2022/05/25 09:19:26;;;;;;;;;;;20.20;74.60;;;;;;5096112;28;19915;-74
2022/05/25 09:21:53;;;;;;;;;;;20.40;74.40;;;;;;5077966;28;19992;-76
2022/05/25 09:24:22;;;;;;;;;;;20.80;74.90;;;;;;5097135;28;20434;-76
2022/05/25 09:26:48;;;;;;;;;;;21.20;73.40;;;;;;5097661;28;19943;-75
2022/05/25 09:29:14;;;;;;;;;;;21.40;72.90;;;;;;5098210;28;19940;-75
2022/05/25 09:31:40;;;;;;;;;;;21.30;72.90;;;;;;5098887;28;19963;-76
2022/05/25 09:34:12;;;;;;;;;;;21.10;72.30;;;;;;5098910;28;19952;-74
2022/05/25 09:36:44;;;;;;;;;;;20.90;73.00;;;;;;5077569;28;20302;-76
2022/05/25 09:39:15;;;;;;;;;;;20.50;72.30;;;;;;5097879;28;19912;-74
2022/05/25 09:41:43;;;;;;;;;;;20.20;72.50;;;;;;5096242;28;19912;-74
2022/05/25 09:44:10;;;;;;;;;;;19.90;72.80;;;;;;5099321;28;20354;-74
2022/05/25 09:46:56;;;;;;;;;;;19.70;72.70;;;;;;5098099;28;19987;-76
2022/05/25 09:49:44;;;;;;;;;;;19.40;72.70;;;;;;5098369;28;19928;-76
2022/05/25 09:52:29;;;;;;;;;;;19.10;73.40;;;;;;5076029;28;20007;-74
2022/05/25 09:54:57;;;;;;;;;;;19.10;73.80;;;;;;5090678;28;19926;-77
2022/05/25 09:57:23;;;;;;;;;;;19.30;73.90;;;;;;5099070;28;19919;-74
2022/05/25 09:59:52;;;;;;;;;;;19.40;73.30;;;;;;5104465;28;20038;-75
2022/05/25 10:02:23;;;;;;;;;;;19.30;73.30;;;;;;5096840;28;19969;-75
2022/05/25 10:04:52;;;;;;;;;;;19.10;73.70;;;;;;5096255;28;19908;-74
2022/05/25 10:07:20;;;;;;;;;;;19.40;74.80;;;;;;5108478;28;20353;-74
2022/05/25 10:09:50;;;;;;;;;;;20.10;74.70;;;;;;5108397;28;20006;-74
2022/05/25 10:12:17;;;;;;;;;;;20.20;73.30;;;;;;5090121;28;19925;-75
2022/05/25 10:14:53;;;;;;;;;;;19.80;72.60;;;;;;5093855;28;20342;-75
2022/05/25 10:17:39;;;;;;;;;;;19.30;72.90;;;;;;5093494;28;19918;-73
2022/05/25 10:20:17;;;;;;;;;;;18.80;73.80;;;;;;5112047;28;19912;-74
2022/05/25 10:22:46;;;;;;;;;;;18.80;75.20;;;;;;5093483;28;20392;-74
2022/05/25 10:25:21;;;;;;;;;;;19.20;76.40;;;;;;5093809;28;19918;-75
2022/05/25 10:27:47;;;;;;;;;;;20.40;77.50;;;;;;5112186;28;19915;-74
2022/05/25 10:38:41;;;;;;;;;;;25.80;72.20;;;;;;5111909;28;19915;-75
2022/05/25 10:44:03;;;;;;;;;;;27.10;69.70;;;;;;5111831;28;19952;-75
2022/05/25 10:46:30;;;;;;;;;;;27.70;68.00;;;;;;5111112;28;19915;-75
2022/05/25 10:49:22;;;;;;;;;;;27.90;65.70;;;;;;5111299;28;19934;-75
2022/05/25 10:51:49;;;;;;;;;;;27.40;63.30;;;;;;5087949;28;19919;-75
2022/05/25 10:57:07;;;;;;;;;;;25.50;62.40;;;;;;5108679;28;20372;-73
2022/05/25 10:59:39;;;;;;;;;;;24.40;63.30;;;;;;5101657;28;19924;-75
2022/05/25 11:02:11;;;;;;;;;;;23.40;63.30;;;;;;5100608;28;19923;-73
2022/05/25 11:04:36;;;;;;;;;;;22.60;63.70;;;;;;5083455;28;20065;-74
2022/05/25 11:07:07;;;;;;;;;;;22.20;65.00;;;;;;5101291;28;20349;-73
2022/05/25 11:09:55;;;;;;;;;;;22.40;65.90;;;;;;5104312;28;20014;-75
2022/05/25 11:12:29;;;;;;;;;;;22.30;65.10;;;;;;5098694;28;19908;-74
2022/05/25 11:14:55;;;;;;;;;;;21.90;65.20;;;;;;5098239;28;19911;-74
2022/05/25 11:17:35;;;;;;;;;;;21.70;65.90;;;;;;5098845;28;19912;-75
2022/05/25 11:20:16;;;;;;;;;;;21.80;66.60;;;;;;5101529;28;20317;-74
2022/05/25 11:22:44;;;;;;;;;;;22.10;66.80;;;;;;5099097;28;19990;-74
2022/05/25 11:25:33;;;;;;;;;;;22.60;66.40;;;;;;5099314;28;19908;-73
2022/05/25 11:28:17;;;;;;;;;;;23.30;66.30;;;;;;5101005;28;20656;-73
2022/05/25 11:31:01;;;;;;;;;;;24.10;65.00;;;;;;5101127;28;19912;-74
2022/05/25 11:33:51;;;;;;;;;;;24.80;63.90;;;;;;5099452;28;19912;-72
2022/05/25 11:36:17;;;;;;;;;;;25.60;64.30;;;;;;5085192;28;19909;-74
2022/05/25 11:38:42;;;;;;;;;;;26.50;63.50;;;;;;5098520;28;19919;-73
2022/05/25 11:41:11;;;;;;;;;;;27.00;63.10;;;;;;5099985;28;19912;-74
2022/05/25 11:43:56;;;;;;;;;;;27.20;62.20;;;;;;5100625;28;20002;-72
2022/05/25 11:46:30;;;;;;;;;;;27.30;61.80;;;;;;5100566;28;19923;-74
2022/05/25 11:49:15;;;;;;;;;;;27.00;60.10;;;;;;5099833;28;19931;-74
2022/05/25 11:51:50;;;;;;;;;;;26.70;60.30;;;;;;5082646;28;19908;-74
2022/05/25 11:54:34;;;;;;;;;;;26.20;59.50;;;;;;5100448;28;19919;-74
2022/05/25 11:57:15;;;;;;;;;;;25.60;59.00;;;;;;5082482;28;19986;-76
2022/05/25 11:59:41;;;;;;;;;;;24.80;58.10;;;;;;5100464;28;19961;-73
2022/05/25 12:02:27;;;;;;;;;;;23.80;58.60;;;;;;5082457;28;19912;-75
2022/05/25 12:05:11;;;;;;;;;;;23.20;59.70;;;;;;5098970;28;19912;-74
2022/05/25 12:07:56;;;;;;;;;;;23.80;61.10;;;;;;5085015;28;19908;-76
2022/05/25 12:10:21;;;;;;;;;;;24.40;60.10;;;;;;5100854;28;19928;-74
2022/05/25 12:13:09;;;;;;;;;;;24.40;59.60;;;;;;5081671;28;19908;-74
2022/05/25 12:15:37;;;;;;;;;;;24.30;59.40;;;;;;5099763;28;20030;-73
2022/05/25 12:18:21;;;;;;;;;;;24.10;59.30;;;;;;5098160;28;19912;-73
2022/05/25 12:20:50;;;;;;;;;;;23.70;59.30;;;;;;5091966;28;19919;-76
2022/05/25 12:23:21;;;;;;;;;;;23.30;59.30;;;;;;5089308;28;19991;-73
2022/05/25 12:25:52;;;;;;;;;;;22.90;59.30;;;;;;5089059;28;19947;-73
2022/05/25 12:28:18;;;;;;;;;;;22.70;59.80;;;;;;5090685;28;20129;-74
2022/05/25 12:30:47;;;;;;;;;;;22.70;60.00;;;;;;5079889;28;19916;-75
2022/05/25 12:33:18;;;;;;;;;;;22.80;60.30;;;;;;5097216;28;19908;-76
2022/05/25 12:35:44;;;;;;;;;;;23.10;60.00;;;;;;5096997;28;19908;-75
2022/05/25 12:38:09;;;;;;;;;;;23.40;59.80;;;;;;5100037;28;19928;-74
2022/05/25 12:40:40;;;;;;;;;;;23.60;59.20;;;;;;5081379;28;19919;-73
2022/05/25 12:43:25;;;;;;;;;;;23.50;58.90;;;;;;5080813;28;19923;-74
2022/05/25 12:48:47;;;;;;;;;;;23.70;59.00;;;;;;5097756;28;19931;-75
2022/05/25 12:51:31;;;;;;;;;;;23.60;59.20;;;;;;5081208;28;19978;-76
2022/05/25 12:53:59;;;;;;;;;;;23.50;59.50;;;;;;5097507;28;20003;-73
2022/05/25 12:56:24;;;;;;;;;;;23.40;59.40;;;;;;5097257;28;19938;-72
2022/05/25 12:58:53;;;;;;;;;;;23.10;59.20;;;;;;5098770;28;20011;-72
2022/05/25 13:01:21;;;;;;;;;;;22.80;59.50;;;;;;5079276;28;20361;-75
2022/05/25 13:03:47;;;;;;;;;;;22.70;60.00;;;;;;5096512;28;19924;-74
2022/05/25 13:06:21;;;;;;;;;;;22.90;60.30;;;;;;5096526;28;19916;-73
2022/05/25 13:08:47;;;;;;;;;;;23.10;60.90;;;;;;5096450;28;19924;-74
2022/05/25 13:11:33;;;;;;;;;;;23.80;61.50;;;;;;5098545;28;20326;-73
2022/05/25 13:13:59;;;;;;;;;;;24.10;60.50;;;;;;5086088;28;19908;-73
2022/05/25 13:16:54;;;;;;;;;;;24.20;59.70;;;;;;5097808;28;20019;-72
2022/05/25 13:19:20;;;;;;;;;;;24.30;59.40;;;;;;5065773;28;19969;-74
2022/05/25 13:21:52;;;;;;;;;;;24.30;58.50;;;;;;5092995;28;20358;-72
2022/05/25 13:24:29;;;;;;;;;;;24.20;58.70;;;;;;5090268;28;20250;-73
2022/05/25 13:27:08;;;;;;;;;;;24.00;58.10;;;;;;5098682;28;19943;-72
2022/05/25 13:29:52;;;;;;;;;;;23.70;58.40;;;;;;5096895;28;19937;-73
2022/05/25 13:32:30;;;;;;;;;;;23.30;58.00;;;;;;5081274;28;19919;-71
2022/05/25 13:34:56;;;;;;;;;;;22.90;58.00;;;;;;5103856;28;20050;-72
2022/05/25 13:37:22;;;;;;;;;;;22.40;58.30;;;;;;5096589;28;20271;-73
2022/05/25 13:39:49;;;;;;;;;;;22.00;58.90;;;;;;5102093;28;19912;-72
2022/05/25 13:42:18;;;;;;;;;;;21.80;59.30;;;;;;5100432;28;20356;-74
2022/05/25 13:44:43;;;;;;;;;;;21.70;59.90;;;;;;5088434;28;19912;-73
2022/05/25 13:47:15;;;;;;;;;;;21.80;60.40;;;;;;5108316;28;19930;-73
2022/05/25 13:49:46;;;;;;;;;;;21.90;60.40;;;;;;5090401;28;20008;-72
2022/05/25 13:52:13;;;;;;;;;;;22.00;60.10;;;;;;5091709;28;20034;-72
2022/05/25 13:54:39;;;;;;;;;;;21.90;60.00;;;;;;5091714;28;19918;-73
2022/05/25 13:57:07;;;;;;;;;;;21.80;60.10;;;;;;5090674;28;19909;-73
2022/05/25 13:59:34;;;;;;;;;;;21.70;60.30;;;;;;5089472;28;19919;-72
2022/05/25 14:02:11;;;;;;;;;;;21.70;60.40;;;;;;5090247;28;19940;-73
2022/05/25 14:04:37;;;;;;;;;;;21.70;60.20;;;;;;5090321;28;19990;-73
2022/05/25 14:07:03;;;;;;;;;;;21.60;60.20;;;;;;5090507;28;20069;-74
2022/05/25 14:12:14;;;;;;;;;;;21.70;60.90;;;;;;5090913;28;19935;-72
2022/05/25 14:14:46;;;;;;;;;;;22.00;60.70;;;;;;5091194;28;20017;-73
2022/05/25 14:17:24;;;;;;;;;;;22.10;60.60;;;;;;5091572;28;19909;-71
2022/05/25 14:19:51;;;;;;;;;;;22.20;60.50;;;;;;5089896;28;19948;-74
2022/05/25 14:22:18;;;;;;;;;;;22.20;60.00;;;;;;5089924;28;20259;-74
2022/05/25 14:24:45;;;;;;;;;;;22.00;60.60;;;;;;5091263;28;19912;-73
2022/05/25 14:27:32;;;;;;;;;;;22.00;60.80;;;;;;5091101;28;19912;-73
2022/05/25 14:30:14;;;;;;;;;;;21.90;60.80;;;;;;5091146;28;19908;-73
2022/05/25 14:32:40;;;;;;;;;;;22.00;60.30;;;;;;5087967;28;19913;-74
2022/05/25 14:35:10;;;;;;;;;;;21.80;60.20;;;;;;5077749;28;19912;-74
2022/05/25 14:37:38;;;;;;;;;;;21.80;60.50;;;;;;5081261;28;19938;-73
2022/05/25 14:40:07;;;;;;;;;;;21.70;60.40;;;;;;5082528;28;19916;-73
2022/05/25 14:42:33;;;;;;;;;;;21.50;60.30;;;;;;5082998;28;19908;-73
2022/05/25 14:45:04;;;;;;;;;;;21.40;60.70;;;;;;5079888;28;19908;-72
2022/05/25 14:47:31;;;;;;;;;;;21.40;60.90;;;;;;5079891;28;20539;-73
2022/05/25 14:50:02;;;;;;;;;;;21.40;60.90;;;;;;5102589;28;19991;-76
2022/05/25 14:52:29;;;;;;;;;;;21.40;61.10;;;;;;5100018;28;20424;-72
2022/05/25 14:55:04;;;;;;;;;;;21.30;61.00;;;;;;5102001;28;20520;-75
2022/05/25 14:57:30;;;;;;;;;;;21.30;61.20;;;;;;5093567;28;19915;-74
2022/05/25 14:59:57;;;;;;;;;;;21.20;61.20;;;;;;5107079;28;19923;-75
2022/05/25 15:02:33;;;;;;;;;;;21.20;61.20;;;;;;5106688;28;19923;-74
2022/05/25 15:04:59;;;;;;;;;;;21.20;61.20;;;;;;5105636;28;19912;-73
2022/05/25 15:07:26;;;;;;;;;;;21.10;61.20;;;;;;5081354;28;19919;-74